sensor_id;sensor_type;location;lat;lon;timestamp;temperature;humidity
54960;DHT22;40860;51.710;8.736;2023-02-18T00:03:03;9.30;99.90
54960;DHT22;40860;51.710;8.736;2023-02-18T00:07:08;9.40;99.90
54960;DHT22;40860;51.710;8.736;2023-02-18T00:11:12;9.40;99.90
54960;DHT22;40860;51.710;8.736;2023-02-18T00:15:15;9.50;99.90
54960;DHT22;40860;51.710;8.736;2023-02-18T00:19:19;9.50;99.90
54960;DHT22;40860;51.710;8.736;2023-02-18T00:23:23;9.50;99.90
54960;DHT22;40860;51.710;8.736;2023-02-18T00:27:26;9.50;99.90
54960;DHT22;40860;51.710;8.736;2023-02-18T00:31:30;9.50;99.90
54960;DHT22;40860;51.710;8.736;2023-02-18T00:35:35;9.50;99.90
54960;DHT22;40860;51.710;8.736;2023-02-18T00:39:39;9.50;99.90
54960;DHT22;40860;51.710;8.736;2023-02-18T00:43:42;9.50;99.90
54960;DHT22;40860;51.710;8.736;2023-02-18T00:47:45;9.50;99.90
54960;DHT22;40860;51.710;8.736;2023-02-18T00:51:56;9.50;99.90
54960;DHT22;40860;51.710;8.736;2023-02-18T00:56:01;9.50;99.90
54960;DHT22;40860;51.710;8.736;2023-02-18T01:00:07;9.50;99.90
54960;DHT22;40860;51.710;8.736;2023-02-18T01:04:10;9.50;99.90
54960;DHT22;40860;51.710;8.736;2023-02-18T01:08:13;9.50;99.90
54960;DHT22;40860;51.710;8.736;2023-02-18T01:12:18;9.50;99.90
54960;DHT22;40860;51.710;8.736;2023-02-18T01:16:25;9.50;99.90
54960;DHT22;40860;51.710;8.736;2023-02-18T01:20:29;9.50;99.90
54960;DHT22;40860;51.710;8.736;2023-02-18T01:24:32;9.50;99.90
54960;DHT22;40860;51.710;8.736;2023-02-18T01:28:37;9.50;99.90
54960;DHT22;40860;51.710;8.736;2023-02-18T01:32:42;9.50;99.90
54960;DHT22;40860;51.710;8.736;2023-02-18T01:36:45;9.50;99.90
54960;DHT22;40860;51.710;8.736;2023-02-18T01:40:52;9.50;99.90
54960;DHT22;40860;51.710;8.736;2023-02-18T01:49:35;9.50;99.90
54960;DHT22;40860;51.710;8.736;2023-02-18T01:53:44;9.50;99.90
54960;DHT22;40860;51.710;8.736;2023-02-18T01:57:47;9.50;99.90
54960;DHT22;40860;51.710;8.736;2023-02-18T02:02:07;9.60;99.90
54960;DHT22;40860;51.710;8.736;2023-02-18T02:06:31;9.60;99.90
54960;DHT22;40860;51.710;8.736;2023-02-18T02:10:44;9.60;99.90
54960;DHT22;40860;51.710;8.736;2023-02-18T02:15:09;9.60;99.90
54960;DHT22;40860;51.710;8.736;2023-02-18T02:24:17;9.60;99.90
54960;DHT22;40860;51.710;8.736;2023-02-18T02:28:58;9.70;99.90
54960;DHT22;40860;51.710;8.736;2023-02-18T02:33:29;9.70;99.90
54960;DHT22;40860;51.710;8.736;2023-02-18T02:37:48;9.70;99.90
54960;DHT22;40860;51.710;8.736;2023-02-18T02:42:02;9.70;99.90
54960;DHT22;40860;51.710;8.736;2023-02-18T02:46:15;9.70;99.90
54960;DHT22;40860;51.710;8.736;2023-02-18T02:50:25;9.80;99.90
54960;DHT22;40860;51.710;8.736;2023-02-18T02:54:37;9.80;99.90
54960;DHT22;40860;51.710;8.736;2023-02-18T02:58:58;9.80;99.90
54960;DHT22;40860;51.710;8.736;2023-02-18T03:03:26;9.80;99.90
54960;DHT22;40860;51.710;8.736;2023-02-18T03:07:50;9.80;99.90
54960;DHT22;40860;51.710;8.736;2023-02-18T03:12:08;9.80;99.90
54960;DHT22;40860;51.710;8.736;2023-02-18T03:16:25;9.80;99.90
54960;DHT22;40860;51.710;8.736;2023-02-18T03:20:56;9.90;99.90
54960;DHT22;40860;51.710;8.736;2023-02-18T03:25:05;9.90;99.90
54960;DHT22;40860;51.710;8.736;2023-02-18T03:29:25;9.90;99.90
54960;DHT22;40860;51.710;8.736;2023-02-18T03:33:45;9.90;99.90
54960;DHT22;40860;51.710;8.736;2023-02-18T03:38:17;9.90;99.90
54960;DHT22;40860;51.710;8.736;2023-02-18T03:42:24;9.90;99.90
54960;DHT22;40860;51.710;8.736;2023-02-18T03:46:45;10.00;99.90
54960;DHT22;40860;51.710;8.736;2023-02-18T03:50:51;10.00;99.90
54960;DHT22;40860;51.710;8.736;2023-02-18T03:55:02;10.00;99.90
54960;DHT22;40860;51.710;8.736;2023-02-18T03:59:16;10.00;99.90
54960;DHT22;40860;51.710;8.736;2023-02-18T04:03:26;10.00;99.90
54960;DHT22;40860;51.710;8.736;2023-02-18T04:07:33;10.00;99.90
54960;DHT22;40860;51.710;8.736;2023-02-18T04:11:39;10.00;99.90
54960;DHT22;40860;51.710;8.736;2023-02-18T04:15:48;10.00;99.90
54960;DHT22;40860;51.710;8.736;2023-02-18T04:19:56;10.10;99.90
54960;DHT22;40860;51.710;8.736;2023-02-18T04:23:59;10.10;99.90
54960;DHT22;40860;51.710;8.736;2023-02-18T04:28:09;10.10;99.90
54960;DHT22;40860;51.710;8.736;2023-02-18T04:32:14;10.10;99.90
54960;DHT22;40860;51.710;8.736;2023-02-18T04:36:20;10.10;99.90
54960;DHT22;40860;51.710;8.736;2023-02-18T04:40:25;10.20;99.90
54960;DHT22;40860;51.710;8.736;2023-02-18T04:44:34;10.20;99.90
54960;DHT22;40860;51.710;8.736;2023-02-18T04:48:46;10.20;99.90
54960;DHT22;40860;51.710;8.736;2023-02-18T04:52:53;10.20;99.90
54960;DHT22;40860;51.710;8.736;2023-02-18T04:56:57;10.20;99.90
54960;DHT22;40860;51.710;8.736;2023-02-18T05:01:02;10.20;99.90
54960;DHT22;40860;51.710;8.736;2023-02-18T05:05:07;10.20;99.90
54960;DHT22;40860;51.710;8.736;2023-02-18T05:09:14;10.20;99.90
54960;DHT22;40860;51.710;8.736;2023-02-18T05:13:20;10.20;99.90
54960;DHT22;40860;51.710;8.736;2023-02-18T05:17:32;10.30;99.90
54960;DHT22;40860;51.710;8.736;2023-02-18T05:21:35;10.30;99.90
54960;DHT22;40860;51.710;8.736;2023-02-18T05:25:42;10.30;99.90
54960;DHT22;40860;51.710;8.736;2023-02-18T05:29:45;10.20;99.90
54960;DHT22;40860;51.710;8.736;2023-02-18T05:33:48;10.30;99.90
54960;DHT22;40860;51.710;8.736;2023-02-18T05:37:51;10.30;99.90
54960;DHT22;40860;51.710;8.736;2023-02-18T05:41:56;10.30;99.90
54960;DHT22;40860;51.710;8.736;2023-02-18T05:46:02;10.30;99.90
54960;DHT22;40860;51.710;8.736;2023-02-18T05:50:09;10.30;99.90
54960;DHT22;40860;51.710;8.736;2023-02-18T05:54:19;10.30;99.90
54960;DHT22;40860;51.710;8.736;2023-02-18T05:58:26;10.30;99.90
54960;DHT22;40860;51.710;8.736;2023-02-18T06:02:29;10.20;99.90
54960;DHT22;40860;51.710;8.736;2023-02-18T06:06:32;10.30;99.90
54960;DHT22;40860;51.710;8.736;2023-02-18T06:10:35;10.30;99.90
54960;DHT22;40860;51.710;8.736;2023-02-18T06:14:39;10.20;99.90
54960;DHT22;40860;51.710;8.736;2023-02-18T06:18:43;10.20;99.90
54960;DHT22;40860;51.710;8.736;2023-02-18T06:22:46;10.20;99.90
54960;DHT22;40860;51.710;8.736;2023-02-18T06:26:48;10.20;99.90
54960;DHT22;40860;51.710;8.736;2023-02-18T06:30:52;10.20;99.90
54960;DHT22;40860;51.710;8.736;2023-02-18T06:34:55;10.20;99.90
54960;DHT22;40860;51.710;8.736;2023-02-18T06:38:58;10.20;99.90
54960;DHT22;40860;51.710;8.736;2023-02-18T06:43:01;10.30;99.90
54960;DHT22;40860;51.710;8.736;2023-02-18T06:47:05;10.20;99.90
54960;DHT22;40860;51.710;8.736;2023-02-18T06:51:08;10.30;99.90
54960;DHT22;40860;51.710;8.736;2023-02-18T06:55:11;10.20;99.90
54960;DHT22;40860;51.710;8.736;2023-02-18T06:59:14;10.20;99.90
54960;DHT22;40860;51.710;8.736;2023-02-18T07:03:18;10.20;99.90
54960;DHT22;40860;51.710;8.736;2023-02-18T07:07:21;10.20;99.90
54960;DHT22;40860;51.710;8.736;2023-02-18T07:11:24;10.20;99.90
54960;DHT22;40860;51.710;8.736;2023-02-18T07:15:27;10.20;99.90
54960;DHT22;40860;51.710;8.736;2023-02-18T07:19:31;10.20;99.90
54960;DHT22;40860;51.710;8.736;2023-02-18T07:23:34;10.20;99.90
54960;DHT22;40860;51.710;8.736;2023-02-18T07:27:37;10.20;99.90
54960;DHT22;40860;51.710;8.736;2023-02-18T07:31:39;10.20;99.90
54960;DHT22;40860;51.710;8.736;2023-02-18T07:35:43;10.20;99.90
54960;DHT22;40860;51.710;8.736;2023-02-18T07:39:46;10.20;99.90
54960;DHT22;40860;51.710;8.736;2023-02-18T07:43:49;10.20;99.90
54960;DHT22;40860;51.710;8.736;2023-02-18T07:47:52;10.20;99.90
54960;DHT22;40860;51.710;8.736;2023-02-18T07:51:56;10.20;99.90
54960;DHT22;40860;51.710;8.736;2023-02-18T07:56:00;10.20;99.90
54960;DHT22;40860;51.710;8.736;2023-02-18T08:00:03;10.20;99.90
54960;DHT22;40860;51.710;8.736;2023-02-18T08:04:13;10.20;99.90
54960;DHT22;40860;51.710;8.736;2023-02-18T08:08:20;10.20;99.90
54960;DHT22;40860;51.710;8.736;2023-02-18T08:12:23;10.20;99.90
54960;DHT22;40860;51.710;8.736;2023-02-18T08:16:26;10.20;99.90
54960;DHT22;40860;51.710;8.736;2023-02-18T08:20:29;10.20;99.90
54960;DHT22;40860;51.710;8.736;2023-02-18T08:24:33;10.20;99.90
54960;DHT22;40860;51.710;8.736;2023-02-18T08:28:36;10.20;99.90
54960;DHT22;40860;51.710;8.736;2023-02-18T08:32:39;10.20;99.90
54960;DHT22;40860;51.710;8.736;2023-02-18T08:36:41;10.20;99.90
54960;DHT22;40860;51.710;8.736;2023-02-18T08:40:46;10.20;99.90
54960;DHT22;40860;51.710;8.736;2023-02-18T08:44:48;10.20;99.90
54960;DHT22;40860;51.710;8.736;2023-02-18T08:48:52;10.20;99.90
54960;DHT22;40860;51.710;8.736;2023-02-18T08:52:55;10.20;99.90
54960;DHT22;40860;51.710;8.736;2023-02-18T08:57:02;10.20;99.90
54960;DHT22;40860;51.710;8.736;2023-02-18T09:01:07;10.20;99.90
54960;DHT22;40860;51.710;8.736;2023-02-18T09:05:12;10.10;99.90
54960;DHT22;40860;51.710;8.736;2023-02-18T09:09:16;10.10;99.90
54960;DHT22;40860;51.710;8.736;2023-02-18T09:13:20;10.10;99.90
54960;DHT22;40860;51.710;8.736;2023-02-18T09:17:23;10.00;99.90
54960;DHT22;40860;51.710;8.736;2023-02-18T09:21:26;10.00;99.90
54960;DHT22;40860;51.710;8.736;2023-02-18T09:25:28;10.00;99.90
54960;DHT22;40860;51.710;8.736;2023-02-18T09:29:33;10.00;99.90
54960;DHT22;40860;51.710;8.736;2023-02-18T09:33:36;10.00;99.90
54960;DHT22;40860;51.710;8.736;2023-02-18T09:37:39;10.10;99.90
54960;DHT22;40860;51.710;8.736;2023-02-18T09:41:44;10.10;99.90
54960;DHT22;40860;51.710;8.736;2023-02-18T09:45:49;10.10;99.90
54960;DHT22;40860;51.710;8.736;2023-02-18T09:49:56;10.10;99.90
54960;DHT22;40860;51.710;8.736;2023-02-18T09:53:59;10.10;99.90
54960;DHT22;40860;51.710;8.736;2023-02-18T09:58:04;10.10;99.90
54960;DHT22;40860;51.710;8.736;2023-02-18T10:02:12;10.20;99.90
54960;DHT22;40860;51.710;8.736;2023-02-18T10:06:21;10.20;99.90
54960;DHT22;40860;51.710;8.736;2023-02-18T10:10:33;10.20;99.90
54960;DHT22;40860;51.710;8.736;2023-02-18T10:14:38;10.20;99.90
54960;DHT22;40860;51.710;8.736;2023-02-18T10:18:45;10.20;99.90
54960;DHT22;40860;51.710;8.736;2023-02-18T10:22:50;10.20;99.90
54960;DHT22;40860;51.710;8.736;2023-02-18T10:26:55;10.10;99.90
54960;DHT22;40860;51.710;8.736;2023-02-18T10:31:01;10.10;99.90
54960;DHT22;40860;51.710;8.736;2023-02-18T10:35:16;10.00;99.90
54960;DHT22;40860;51.710;8.736;2023-02-18T10:39:34;9.90;99.90
54960;DHT22;40860;51.710;8.736;2023-02-18T10:43:44;9.80;99.90
54960;DHT22;40860;51.710;8.736;2023-02-18T10:47:56;9.80;99.90
54960;DHT22;40860;51.710;8.736;2023-02-18T10:52:04;9.80;99.90
54960;DHT22;40860;51.710;8.736;2023-02-18T10:56:32;9.70;99.90
54960;DHT22;40860;51.710;8.736;2023-02-18T11:00:38;9.70;99.90
54960;DHT22;40860;51.710;8.736;2023-02-18T11:04:43;9.70;99.90
54960;DHT22;40860;51.710;8.736;2023-02-18T11:08:48;9.70;99.90
54960;DHT22;40860;51.710;8.736;2023-02-18T11:12:55;9.70;99.90
54960;DHT22;40860;51.710;8.736;2023-02-18T11:17:08;9.70;99.90
54960;DHT22;40860;51.710;8.736;2023-02-18T11:21:25;9.60;99.90
54960;DHT22;40860;51.710;8.736;2023-02-18T11:25:33;9.50;99.90
54960;DHT22;40860;51.710;8.736;2023-02-18T11:29:36;9.50;99.90
54960;DHT22;40860;51.710;8.736;2023-02-18T11:33:42;9.40;99.90
54960;DHT22;40860;51.710;8.736;2023-02-18T11:37:46;9.40;99.90
54960;DHT22;40860;51.710;8.736;2023-02-18T11:41:55;9.40;99.90
54960;DHT22;40860;51.710;8.736;2023-02-18T11:46:10;9.40;99.90
54960;DHT22;40860;51.710;8.736;2023-02-18T11:50:16;9.50;99.90
54960;DHT22;40860;51.710;8.736;2023-02-18T11:54:25;9.40;99.90
54960;DHT22;40860;51.710;8.736;2023-02-18T11:58:38;9.50;99.90
54960;DHT22;40860;51.710;8.736;2023-02-18T12:02:42;9.50;99.90
54960;DHT22;40860;51.710;8.736;2023-02-18T12:06:50;9.50;99.90
54960;DHT22;40860;51.710;8.736;2023-02-18T12:11:00;9.50;99.90
54960;DHT22;40860;51.710;8.736;2023-02-18T12:15:05;9.50;99.90
54960;DHT22;40860;51.710;8.736;2023-02-18T12:19:22;9.50;99.90
54960;DHT22;40860;51.710;8.736;2023-02-18T12:23:34;9.50;99.90
54960;DHT22;40860;51.710;8.736;2023-02-18T12:27:42;9.40;99.90
54960;DHT22;40860;51.710;8.736;2023-02-18T12:32:14;9.40;99.90
54960;DHT22;40860;51.710;8.736;2023-02-18T12:36:26;9.40;99.90
54960;DHT22;40860;51.710;8.736;2023-02-18T12:41:00;9.40;99.90
54960;DHT22;40860;51.710;8.736;2023-02-18T12:50:24;9.40;99.90
54960;DHT22;40860;51.710;8.736;2023-02-18T12:54:39;9.30;99.90
54960;DHT22;40860;51.710;8.736;2023-02-18T12:58:53;9.30;99.90
54960;DHT22;40860;51.710;8.736;2023-02-18T13:08:03;9.30;99.90
54960;DHT22;40860;51.710;8.736;2023-02-18T13:12:11;9.40;99.90
54960;DHT22;40860;51.710;8.736;2023-02-18T13:16:18;9.30;99.90
54960;DHT22;40860;51.710;8.736;2023-02-18T13:20:33;9.30;99.90
54960;DHT22;40860;51.710;8.736;2023-02-18T13:24:56;9.40;99.90
54960;DHT22;40860;51.710;8.736;2023-02-18T13:29:17;9.40;99.90
54960;DHT22;40860;51.710;8.736;2023-02-18T13:33:46;9.40;99.90
54960;DHT22;40860;51.710;8.736;2023-02-18T13:38:02;9.40;99.90
54960;DHT22;40860;51.710;8.736;2023-02-18T13:42:34;9.50;99.90
54960;DHT22;40860;51.710;8.736;2023-02-18T13:46:47;9.50;99.90
54960;DHT22;40860;51.710;8.736;2023-02-18T13:55:39;9.50;99.90
54960;DHT22;40860;51.710;8.736;2023-02-18T13:59:46;9.50;99.90
54960;DHT22;40860;51.710;8.736;2023-02-18T14:03:56;9.60;99.90
54960;DHT22;40860;51.710;8.736;2023-02-18T14:08:12;9.70;99.90
54960;DHT22;40860;51.710;8.736;2023-02-18T14:12:36;9.70;99.90
54960;DHT22;40860;51.710;8.736;2023-02-18T14:17:22;9.70;99.90
54960;DHT22;40860;51.710;8.736;2023-02-18T14:21:46;9.70;99.90
54960;DHT22;40860;51.710;8.736;2023-02-18T14:25:51;9.70;99.90
54960;DHT22;40860;51.710;8.736;2023-02-18T14:30:04;9.70;99.90
54960;DHT22;40860;51.710;8.736;2023-02-18T14:34:50;9.70;99.90
54960;DHT22;40860;51.710;8.736;2023-02-18T14:39:02;9.70;99.90
54960;DHT22;40860;51.710;8.736;2023-02-18T14:43:19;9.60;99.90
54960;DHT22;40860;51.710;8.736;2023-02-18T14:47:29;9.60;99.90
54960;DHT22;40860;51.710;8.736;2023-02-18T14:51:39;9.60;99.90
54960;DHT22;40860;51.710;8.736;2023-02-18T14:55:46;9.60;99.90
54960;DHT22;40860;51.710;8.736;2023-02-18T14:59:56;9.60;99.90
54960;DHT22;40860;51.710;8.736;2023-02-18T15:04:02;9.60;99.90
54960;DHT22;40860;51.710;8.736;2023-02-18T15:08:15;9.60;99.90
54960;DHT22;40860;51.710;8.736;2023-02-18T15:12:20;9.60;99.90
54960;DHT22;40860;51.710;8.736;2023-02-18T15:16:31;9.60;99.90
54960;DHT22;40860;51.710;8.736;2023-02-18T15:21:14;9.60;99.90
54960;DHT22;40860;51.710;8.736;2023-02-18T15:25:20;9.60;99.90
54960;DHT22;40860;51.710;8.736;2023-02-18T15:29:34;9.60;99.90
54960;DHT22;40860;51.710;8.736;2023-02-18T15:33:42;9.60;99.90
54960;DHT22;40860;51.710;8.736;2023-02-18T15:37:52;9.60;99.90
54960;DHT22;40860;51.710;8.736;2023-02-18T15:42:00;9.60;99.90
54960;DHT22;40860;51.710;8.736;2023-02-18T15:46:11;9.60;99.90
54960;DHT22;40860;51.710;8.736;2023-02-18T15:50:17;9.60;99.90
54960;DHT22;40860;51.710;8.736;2023-02-18T15:54:22;9.60;99.90
54960;DHT22;40860;51.710;8.736;2023-02-18T15:58:29;9.60;99.90
54960;DHT22;40860;51.710;8.736;2023-02-18T16:02:50;9.60;99.90
54960;DHT22;40860;51.710;8.736;2023-02-18T16:06:54;9.60;99.90
54960;DHT22;40860;51.710;8.736;2023-02-18T16:11:00;9.60;99.90
54960;DHT22;40860;51.710;8.736;2023-02-18T16:15:10;9.60;99.90
54960;DHT22;40860;51.710;8.736;2023-02-18T16:19:23;9.60;99.90
54960;DHT22;40860;51.710;8.736;2023-02-18T16:23:33;9.60;99.90
54960;DHT22;40860;51.710;8.736;2023-02-18T16:27:48;9.70;99.90
54960;DHT22;40860;51.710;8.736;2023-02-18T16:31:53;9.70;99.90
54960;DHT22;40860;51.710;8.736;2023-02-18T16:35:56;9.80;99.90
54960;DHT22;40860;51.710;8.736;2023-02-18T16:39:59;9.70;99.90
54960;DHT22;40860;51.710;8.736;2023-02-18T16:44:12;9.80;99.90
54960;DHT22;40860;51.710;8.736;2023-02-18T16:48:18;9.80;99.90
54960;DHT22;40860;51.710;8.736;2023-02-18T16:52:21;9.80;99.90
54960;DHT22;40860;51.710;8.736;2023-02-18T16:56:48;9.80;99.90
54960;DHT22;40860;51.710;8.736;2023-02-18T17:00:52;9.80;99.90
54960;DHT22;40860;51.710;8.736;2023-02-18T17:04:57;9.70;99.90
54960;DHT22;40860;51.710;8.736;2023-02-18T17:09:01;9.70;99.90
54960;DHT22;40860;51.710;8.736;2023-02-18T17:13:03;9.80;99.90
54960;DHT22;40860;51.710;8.736;2023-02-18T17:17:19;9.80;99.90
54960;DHT22;40860;51.710;8.736;2023-02-18T17:21:26;9.70;99.90
54960;DHT22;40860;51.710;8.736;2023-02-18T17:25:35;9.70;99.90
54960;DHT22;40860;51.710;8.736;2023-02-18T17:29:44;9.70;99.90
54960;DHT22;40860;51.710;8.736;2023-02-18T17:33:47;9.80;99.90
54960;DHT22;40860;51.710;8.736;2023-02-18T17:37:53;9.80;99.90
54960;DHT22;40860;51.710;8.736;2023-02-18T17:41:56;9.70;99.90
54960;DHT22;40860;51.710;8.736;2023-02-18T17:46:00;9.70;99.90
54960;DHT22;40860;51.710;8.736;2023-02-18T17:50:03;9.80;99.90
54960;DHT22;40860;51.710;8.736;2023-02-18T17:54:11;9.80;99.90
54960;DHT22;40860;51.710;8.736;2023-02-18T17:58:15;9.80;99.90
54960;DHT22;40860;51.710;8.736;2023-02-18T18:02:25;9.80;99.90
54960;DHT22;40860;51.710;8.736;2023-02-18T18:06:28;9.80;99.90
54960;DHT22;40860;51.710;8.736;2023-02-18T18:10:36;9.80;99.90
54960;DHT22;40860;51.710;8.736;2023-02-18T18:14:39;9.80;99.90
54960;DHT22;40860;51.710;8.736;2023-02-18T18:18:43;9.70;99.90
54960;DHT22;40860;51.710;8.736;2023-02-18T18:22:46;9.80;99.90
54960;DHT22;40860;51.710;8.736;2023-02-18T18:26:50;9.80;99.90
54960;DHT22;40860;51.710;8.736;2023-02-18T18:30:54;9.80;99.90
54960;DHT22;40860;51.710;8.736;2023-02-18T18:34:57;9.80;99.90
54960;DHT22;40860;51.710;8.736;2023-02-18T18:39:00;9.80;99.90
54960;DHT22;40860;51.710;8.736;2023-02-18T18:43:05;9.80;99.90
54960;DHT22;40860;51.710;8.736;2023-02-18T18:47:08;9.80;99.90
54960;DHT22;40860;51.710;8.736;2023-02-18T18:51:14;9.80;99.90
54960;DHT22;40860;51.710;8.736;2023-02-18T18:55:20;9.80;99.90
54960;DHT22;40860;51.710;8.736;2023-02-18T18:59:25;9.80;99.90
54960;DHT22;40860;51.710;8.736;2023-02-18T19:03:30;9.90;99.90
54960;DHT22;40860;51.710;8.736;2023-02-18T19:07:34;9.80;99.90
54960;DHT22;40860;51.710;8.736;2023-02-18T19:11:40;9.80;99.90
54960;DHT22;40860;51.710;8.736;2023-02-18T19:15:46;9.80;99.90
54960;DHT22;40860;51.710;8.736;2023-02-18T19:19:49;9.80;99.90
54960;DHT22;40860;51.710;8.736;2023-02-18T19:23:52;9.70;99.90
54960;DHT22;40860;51.710;8.736;2023-02-18T19:27:55;9.70;99.90
54960;DHT22;40860;51.710;8.736;2023-02-18T19:31:59;9.70;99.90
54960;DHT22;40860;51.710;8.736;2023-02-18T19:36:05;9.80;99.90
54960;DHT22;40860;51.710;8.736;2023-02-18T19:40:11;9.80;99.90
54960;DHT22;40860;51.710;8.736;2023-02-18T19:44:15;9.80;99.90
54960;DHT22;40860;51.710;8.736;2023-02-18T19:48:19;9.90;99.90
54960;DHT22;40860;51.710;8.736;2023-02-18T19:52:24;9.90;99.90
54960;DHT22;40860;51.710;8.736;2023-02-18T19:56:27;9.80;99.90
54960;DHT22;40860;51.710;8.736;2023-02-18T20:00:31;9.80;99.90
54960;DHT22;40860;51.710;8.736;2023-02-18T20:04:35;9.80;99.90
54960;DHT22;40860;51.710;8.736;2023-02-18T20:08:38;9.80;99.90
54960;DHT22;40860;51.710;8.736;2023-02-18T20:12:41;9.80;99.90
54960;DHT22;40860;51.710;8.736;2023-02-18T20:16:44;9.80;99.90
54960;DHT22;40860;51.710;8.736;2023-02-18T20:20:49;9.80;99.90
54960;DHT22;40860;51.710;8.736;2023-02-18T20:24:52;9.80;99.90
54960;DHT22;40860;51.710;8.736;2023-02-18T20:28:55;9.80;99.90
54960;DHT22;40860;51.710;8.736;2023-02-18T20:32:59;9.80;99.90
54960;DHT22;40860;51.710;8.736;2023-02-18T20:37:03;9.80;99.90
54960;DHT22;40860;51.710;8.736;2023-02-18T20:41:08;9.80;99.90
54960;DHT22;40860;51.710;8.736;2023-02-18T20:45:12;9.80;99.90
54960;DHT22;40860;51.710;8.736;2023-02-18T20:49:16;9.80;99.90
54960;DHT22;40860;51.710;8.736;2023-02-18T20:53:21;9.80;99.90
54960;DHT22;40860;51.710;8.736;2023-02-18T20:57:24;9.80;99.90
54960;DHT22;40860;51.710;8.736;2023-02-18T21:01:34;9.70;99.90
54960;DHT22;40860;51.710;8.736;2023-02-18T21:05:38;9.70;99.90
54960;DHT22;40860;51.710;8.736;2023-02-18T21:09:42;9.70;99.90
54960;DHT22;40860;51.710;8.736;2023-02-18T21:13:47;9.70;99.90
54960;DHT22;40860;51.710;8.736;2023-02-18T21:17:50;9.70;99.90
54960;DHT22;40860;51.710;8.736;2023-02-18T21:21:52;9.70;99.90
54960;DHT22;40860;51.710;8.736;2023-02-18T21:26:02;9.70;99.90
54960;DHT22;40860;51.710;8.736;2023-02-18T21:34:38;9.60;99.90
54960;DHT22;40860;51.710;8.736;2023-02-18T21:38:42;9.60;99.90
54960;DHT22;40860;51.710;8.736;2023-02-18T21:42:47;9.60;99.90
54960;DHT22;40860;51.710;8.736;2023-02-18T21:46:51;9.60;99.90
54960;DHT22;40860;51.710;8.736;2023-02-18T21:50:54;9.60;99.90
54960;DHT22;40860;51.710;8.736;2023-02-18T21:55:01;9.60;99.90
54960;DHT22;40860;51.710;8.736;2023-02-18T21:59:05;9.60;99.90
54960;DHT22;40860;51.710;8.736;2023-02-18T22:03:08;9.60;99.90
54960;DHT22;40860;51.710;8.736;2023-02-18T22:07:11;9.50;99.90
54960;DHT22;40860;51.710;8.736;2023-02-18T22:11:17;9.50;99.90
54960;DHT22;40860;51.710;8.736;2023-02-18T22:15:21;9.50;99.90
54960;DHT22;40860;51.710;8.736;2023-02-18T22:19:24;9.50;99.90
54960;DHT22;40860;51.710;8.736;2023-02-18T22:23:30;9.50;99.90
54960;DHT22;40860;51.710;8.736;2023-02-18T22:27:33;9.50;99.90
54960;DHT22;40860;51.710;8.736;2023-02-18T22:31:43;9.50;99.90
54960;DHT22;40860;51.710;8.736;2023-02-18T22:35:47;9.40;99.90
54960;DHT22;40860;51.710;8.736;2023-02-18T22:39:50;9.40;99.90
54960;DHT22;40860;51.710;8.736;2023-02-18T22:43:53;9.40;99.90
54960;DHT22;40860;51.710;8.736;2023-02-18T22:47:57;9.30;99.90
54960;DHT22;40860;51.710;8.736;2023-02-18T22:52:00;9.30;99.90
54960;DHT22;40860;51.710;8.736;2023-02-18T22:56:06;9.30;99.90
54960;DHT22;40860;51.710;8.736;2023-02-18T23:00:11;9.30;99.90
54960;DHT22;40860;51.710;8.736;2023-02-18T23:04:16;9.30;99.90
54960;DHT22;40860;51.710;8.736;2023-02-18T23:08:20;9.20;99.90
54960;DHT22;40860;51.710;8.736;2023-02-18T23:12:22;9.20;99.90
54960;DHT22;40860;51.710;8.736;2023-02-18T23:16:25;9.20;99.90
54960;DHT22;40860;51.710;8.736;2023-02-18T23:20:30;9.30;99.90
54960;DHT22;40860;51.710;8.736;2023-02-18T23:24:50;9.30;99.90
54960;DHT22;40860;51.710;8.736;2023-02-18T23:28:53;9.30;99.90
54960;DHT22;40860;51.710;8.736;2023-02-18T23:32:56;9.30;99.90
54960;DHT22;40860;51.710;8.736;2023-02-18T23:37:00;9.30;99.90
54960;DHT22;40860;51.710;8.736;2023-02-18T23:41:03;9.30;99.90
54960;DHT22;40860;51.710;8.736;2023-02-18T23:45:07;9.30;99.90
54960;DHT22;40860;51.710;8.736;2023-02-18T23:49:13;9.30;99.90
54960;DHT22;40860;51.710;8.736;2023-02-18T23:53:25;9.40;99.90
54960;DHT22;40860;51.710;8.736;2023-02-18T23:57:29;9.40;99.90
